Terminal Aerodrome Forecast
Issued by NWS Duluth, MN

Current Version | Previous Version | Text Only | Print | Product List | Glossary On
Versions: 1 2 3 4 5 6 7 8 9 10 11 12 13 14 15 16 17 18 19 20 21 22 23 24 25 26 27 28 29 30 31
585
FTUS43 KDLH 180843 AAB
TAFDLH
TAF AMD
KDLH 180843Z 1809/1906 22006KT 3/4SM BR OVC002
     FM181500 22008KT 2SM BR OVC004
     FM181700 23011KT P6SM BKN008
     FM182000 23011KT P6SM OVC015
     FM190000 24012KT 2SM -SN OVC012=

USA.gov is the U.S. government's official web portal to all federal, state and local government web resources and services.